createdAt,value
2022-08-09T00:00:21.199Z,71.10
2022-08-09T00:02:51.423Z,71.10
2022-08-09T00:06:19.655Z,71.20
2022-08-09T00:08:31.474Z,71.20
2022-08-09T00:10:59.569Z,71.20
2022-08-09T00:13:31.705Z,71.30
2022-08-09T00:16:02.710Z,71.40
2022-08-09T00:18:35.016Z,71.40
2022-08-09T00:21:08.807Z,71.40
2022-08-09T00:23:58.170Z,71.40
2022-08-09T00:26:29.837Z,71.30
2022-08-09T00:29:02.772Z,71.20
2022-08-09T00:31:59.452Z,71.10
2022-08-09T00:34:19.808Z,71.00
2022-08-09T00:36:48.973Z,71.10
2022-08-09T00:40:12.231Z,71.10
2022-08-09T00:44:14.246Z,71.10
2022-08-09T00:44:53.619Z,71.00
2022-08-09T00:47:24.719Z,71.00
2022-08-09T00:49:56.598Z,70.90
2022-08-09T00:52:30.192Z,71.00
2022-08-09T00:55:02.388Z,71.00
2022-08-09T00:57:34.470Z,71.10
2022-08-09T01:00:21.609Z,71.30
2022-08-09T01:02:50.592Z,71.40
2022-08-09T01:05:22.124Z,71.10
2022-08-09T01:08:01.154Z,71.00
2022-08-09T01:10:38.517Z,71.10
2022-08-09T01:13:12.797Z,71.00
2022-08-09T01:15:52.648Z,71.00
2022-08-09T01:18:31.513Z,70.80
2022-08-09T01:21:24.858Z,70.70
2022-08-09T01:24:10.077Z,70.80
2022-08-09T01:26:53.942Z,70.70
2022-08-09T01:29:56.015Z,70.80
2022-08-09T01:32:37.366Z,70.80
2022-08-09T01:35:38.109Z,70.60
2022-08-09T01:38:08.208Z,70.50
2022-08-09T01:40:42.373Z,70.30
2022-08-09T01:43:10.434Z,70.40
2022-08-09T01:45:46.096Z,70.40
2022-08-09T01:48:16.756Z,70.40
2022-08-09T01:50:48.800Z,70.40
2022-08-09T01:53:29.312Z,70.50
2022-08-09T01:56:11.183Z,70.40
2022-08-09T01:58:40.474Z,70.50
2022-08-09T02:01:09.239Z,70.60
2022-08-09T02:03:37.631Z,70.70
2022-08-09T02:06:07.948Z,70.80
2022-08-09T02:08:57.614Z,70.80
2022-08-09T02:11:42.001Z,70.70
2022-08-09T02:14:10.931Z,70.70
2022-08-09T02:16:52.986Z,70.70
2022-08-09T02:19:34.862Z,70.70
2022-08-09T02:22:31.663Z,70.70
2022-08-09T02:25:06.624Z,71.30
2022-08-09T02:27:57.524Z,70.40
2022-08-09T02:30:26.376Z,70.30
2022-08-09T02:32:55.292Z,70.00
2022-08-09T02:36:01.715Z,70.50
2022-08-09T02:38:27.826Z,69.80
2022-08-09T02:40:59.500Z,70.00
2022-08-09T02:43:29.458Z,70.10
2022-08-09T02:46:12.258Z,70.10
2022-08-09T02:48:46.247Z,70.10
2022-08-09T02:51:18.606Z,70.00
2022-08-09T02:54:00.864Z,69.90
2022-08-09T02:56:30.647Z,69.90
2022-08-09T02:58:59.868Z,69.80
2022-08-09T03:01:29.083Z,69.60
2022-08-09T03:04:16.925Z,69.60
2022-08-09T03:06:46.149Z,69.70
2022-08-09T03:09:17.697Z,69.70
2022-08-09T03:12:05.492Z,69.80
2022-08-09T03:14:34.331Z,69.80
2022-08-09T03:17:05.650Z,69.90
2022-08-09T03:19:58.503Z,69.90
2022-08-09T03:22:25.461Z,69.70
2022-08-09T03:25:06.427Z,69.60
2022-08-09T03:27:52.194Z,69.50
2022-08-09T03:30:28.083Z,69.40
2022-08-09T03:32:59.159Z,69.40
2022-08-09T03:35:44.263Z,69.40
2022-08-09T03:38:29.009Z,69.30
2022-08-09T03:40:58.475Z,69.30
2022-08-09T03:43:31.653Z,69.30
2022-08-09T03:46:13.616Z,69.40
2022-08-09T03:48:52.014Z,69.40
2022-08-09T03:51:43.952Z,69.50
2022-08-09T03:54:12.309Z,70.00
2022-08-09T03:56:41.356Z,69.30
2022-08-09T03:59:17.190Z,69.30
2022-08-09T04:01:59.067Z,69.20
2022-08-09T04:04:32.504Z,69.10
2022-08-09T04:07:00.879Z,69.10
2022-08-09T04:09:41.757Z,69.10
2022-08-09T04:12:30.639Z,69.20
2022-08-09T04:15:11.638Z,69.30
2022-08-09T04:17:47.366Z,69.40
2022-08-09T04:20:16.029Z,69.60
2022-08-09T04:22:44.566Z,69.60
2022-08-09T04:25:13.036Z,69.60
2022-08-09T04:27:46.853Z,69.70
2022-08-09T04:30:18.327Z,69.70
2022-08-09T04:32:49.437Z,69.70
2022-08-09T04:35:17.595Z,69.70
2022-08-09T04:37:50.229Z,69.50
2022-08-09T04:40:19.292Z,69.40
2022-08-09T04:42:57.268Z,69.20
2022-08-09T04:45:30.716Z,69.30
2022-08-09T04:48:09.866Z,69.10
2022-08-09T04:50:38.418Z,69.10
2022-08-09T04:53:13.488Z,69.10
2022-08-09T04:55:58.357Z,69.30
2022-08-09T04:58:28.997Z,69.50
2022-08-09T05:00:59.816Z,69.40
2022-08-09T05:03:42.734Z,69.30
2022-08-09T05:06:25.741Z,69.40
2022-08-09T05:09:00.346Z,69.50
2022-08-09T05:11:32.054Z,69.60
2022-08-09T05:14:00.305Z,69.50
2022-08-09T05:16:31.761Z,69.40
2022-08-09T05:19:00.768Z,69.50
2022-08-09T05:21:36.611Z,69.30
2022-08-09T05:24:18.526Z,69.40
2022-08-09T05:26:47.821Z,69.40
2022-08-09T05:29:24.547Z,69.40
2022-08-09T05:32:02.073Z,69.50
2022-08-09T05:34:32.500Z,69.50
2022-08-09T05:37:04.981Z,69.50
2022-08-09T05:39:43.524Z,69.60
2022-08-09T05:42:17.552Z,69.70
2022-08-09T05:45:00.042Z,69.80
2022-08-09T05:47:30.285Z,69.90
2022-08-09T05:50:30.022Z,70.00
2022-08-09T05:52:53.683Z,70.00
2022-08-09T05:55:23.912Z,70.10
2022-08-09T05:57:56.741Z,70.10
2022-08-09T06:00:29.912Z,70.00
2022-08-09T06:02:59.354Z,70.00
2022-08-09T06:05:50.278Z,70.00
2022-08-09T06:08:19.644Z,69.90
2022-08-09T06:10:55.826Z,69.90
2022-08-09T06:13:24.506Z,70.00
2022-08-09T06:15:53.000Z,70.10
2022-08-09T06:18:24.833Z,70.30
2022-08-09T06:20:57.290Z,70.20
2022-08-09T06:23:58.917Z,70.40
2022-08-09T06:26:20.135Z,70.40
2022-08-09T06:28:50.185Z,70.50
2022-08-09T06:31:31.608Z,70.60
2022-08-09T06:34:07.430Z,70.80
2022-08-09T06:36:35.612Z,70.80
2022-08-09T06:39:09.310Z,70.90
2022-08-09T06:42:07.843Z,71.00
2022-08-09T06:44:27.990Z,71.30
2022-08-09T06:46:56.179Z,71.40
2022-08-09T06:49:44.585Z,71.40
2022-08-09T06:52:15.996Z,71.30
2022-08-09T06:54:44.013Z,71.30
2022-08-09T06:57:15.124Z,71.00
2022-08-09T07:00:50.510Z,70.90
2022-08-09T07:02:32.251Z,70.60
2022-08-09T07:05:01.411Z,70.60
2022-08-09T07:07:59.727Z,70.40
2022-08-09T07:10:29.478Z,70.40
2022-08-09T07:12:59.261Z,70.40
2022-08-09T07:16:34.986Z,70.50
2022-08-09T07:18:15.765Z,70.40
2022-08-09T07:20:44.584Z,70.50
2022-08-09T07:23:19.285Z,70.70
2022-08-09T07:25:52.187Z,70.50
2022-08-09T07:28:29.249Z,70.60
2022-08-09T07:30:57.328Z,70.60
2022-08-09T07:33:25.245Z,70.60
2022-08-09T07:35:54.065Z,70.60
2022-08-09T07:38:23.417Z,70.70
2022-08-09T07:41:00.846Z,70.80
2022-08-09T07:43:50.059Z,70.70
2022-08-09T07:46:25.307Z,70.50
2022-08-09T07:49:00.082Z,70.70
2022-08-09T07:52:04.564Z,70.70
2022-08-09T07:54:19.108Z,70.60
2022-08-09T07:56:55.458Z,70.70
2022-08-09T07:59:33.866Z,70.60
2022-08-09T08:02:13.115Z,70.60
2022-08-09T08:04:49.027Z,70.70
2022-08-09T08:08:43.035Z,70.70
2022-08-09T08:10:07.911Z,70.60
2022-08-09T08:12:42.653Z,70.60
2022-08-09T08:15:16.632Z,71.20
2022-08-09T08:17:53.329Z,70.60
2022-08-09T08:20:29.030Z,70.50
2022-08-09T08:23:03.540Z,70.60
2022-08-09T08:25:50.261Z,70.70
2022-08-09T08:28:26.037Z,70.80
2022-08-09T08:31:04.897Z,70.80
2022-08-09T08:33:52.180Z,70.70
2022-08-09T08:36:29.089Z,70.70
2022-08-09T08:38:58.803Z,70.70
2022-08-09T08:41:50.196Z,70.60
2022-08-09T08:44:23.222Z,70.50
2022-08-09T08:47:02.111Z,70.40
2022-08-09T08:49:47.070Z,70.30
2022-08-09T08:55:06.968Z,70.20
2022-08-09T08:57:36.090Z,70.00
2022-08-09T09:00:12.799Z,70.00
2022-08-09T09:02:53.905Z,69.90
2022-08-09T09:05:57.367Z,69.80
2022-08-09T09:08:29.934Z,69.60
2022-08-09T09:11:04.169Z,69.30
2022-08-09T09:13:47.470Z,69.20
2022-08-09T09:16:30.476Z,69.10
2022-08-09T09:22:02.730Z,69.10
2022-08-09T09:24:34.712Z,69.00
2022-08-09T09:27:05.977Z,69.00
2022-08-09T09:30:08.446Z,69.00
2022-08-09T09:32:35.070Z,68.90
2022-08-09T09:35:09.495Z,69.00
2022-08-09T09:37:40.398Z,69.10
2022-08-09T09:40:09.797Z,69.30
2022-08-09T09:42:39.360Z,69.40
2022-08-09T09:45:14.422Z,69.50
2022-08-09T09:47:58.723Z,69.60
2022-08-09T09:50:42.075Z,70.00
2022-08-09T09:53:20.541Z,69.90
2022-08-09T09:55:57.554Z,69.90
2022-08-09T09:58:45.797Z,70.00
2022-08-09T10:01:37.869Z,69.80
2022-08-09T10:04:15.973Z,69.70
2022-08-09T10:06:46.980Z,69.50
2022-08-09T10:09:22.234Z,69.30
2022-08-09T10:12:14.843Z,69.30
2022-08-09T10:14:51.769Z,69.30
2022-08-09T10:17:40.203Z,69.20
2022-08-09T10:20:27.409Z,69.00
2022-08-09T10:23:13.652Z,69.00
2022-08-09T10:26:05.945Z,68.80
2022-08-09T10:28:37.295Z,68.70
2022-08-09T10:34:10.251Z,68.70
2022-08-09T10:36:43.246Z,68.60
2022-08-09T10:39:15.635Z,68.50
2022-08-09T10:41:47.525Z,68.30
2022-08-09T10:44:24.721Z,68.30
2022-08-09T10:47:20.582Z,68.40
2022-08-09T10:49:58.764Z,68.40
2022-08-09T10:52:42.992Z,68.30
2022-08-09T10:55:22.654Z,68.20
2022-08-09T10:57:51.854Z,68.00
2022-08-09T11:00:29.469Z,68.00
2022-08-09T11:03:14.512Z,68.10
2022-08-09T11:06:03.898Z,68.10
2022-08-09T11:08:47.733Z,68.10
2022-08-09T11:11:16.806Z,68.30
2022-08-09T11:14:04.666Z,68.40
2022-08-09T11:16:41.102Z,68.50
2022-08-09T11:19:10.959Z,68.60
2022-08-09T11:22:16.767Z,68.50
2022-08-09T11:24:59.439Z,68.20
2022-08-09T11:28:04.792Z,68.10
2022-08-09T11:30:33.762Z,67.90
2022-08-09T11:33:03.866Z,68.00
2022-08-09T11:35:49.199Z,68.10
2022-08-09T11:38:17.889Z,68.30
2022-08-09T11:40:46.932Z,68.50
2022-08-09T11:43:38.789Z,68.50
2022-08-09T11:46:06.894Z,68.60
2022-08-09T11:48:46.980Z,69.10
2022-08-09T11:52:06.808Z,68.60
2022-08-09T11:54:14.106Z,68.40
2022-08-09T11:56:48.080Z,68.20
2022-08-09T11:59:30.693Z,68.10
2022-08-09T12:02:16.997Z,68.20
2022-08-09T12:04:47.260Z,68.30
2022-08-09T12:07:15.211Z,68.20
2022-08-09T12:09:50.962Z,68.30
2022-08-09T12:12:20.248Z,68.30
2022-08-09T12:15:08.262Z,68.30
2022-08-09T12:17:43.321Z,68.40
2022-08-09T12:20:22.235Z,68.60
2022-08-09T12:22:58.921Z,68.60
2022-08-09T12:25:36.842Z,68.50
2022-08-09T12:29:14.404Z,68.30
2022-08-09T12:31:02.187Z,68.20
2022-08-09T12:33:51.011Z,68.00
2022-08-09T12:36:31.511Z,67.80
2022-08-09T12:39:02.404Z,67.80
2022-08-09T12:41:39.314Z,67.60
2022-08-09T12:44:10.249Z,67.50
2022-08-09T12:46:43.393Z,67.50
2022-08-09T12:49:17.777Z,67.20
2022-08-09T12:52:02.641Z,67.20
2022-08-09T12:56:12.238Z,67.30
2022-08-09T12:57:39.825Z,67.40
2022-08-09T13:00:18.944Z,67.50
2022-08-09T13:02:57.535Z,67.50
2022-08-09T13:05:27.089Z,67.40
2022-08-09T13:08:16.343Z,67.20
2022-08-09T13:10:52.359Z,67.20
2022-08-09T13:14:01.027Z,66.90
2022-08-09T13:16:17.779Z,66.80
2022-08-09T13:18:53.490Z,66.70
2022-08-09T13:22:36.031Z,66.50
2022-08-09T13:24:53.510Z,66.60
2022-08-09T13:27:06.092Z,66.50
2022-08-09T13:30:02.446Z,66.70
2022-08-09T13:32:38.290Z,66.60
2022-08-09T13:35:11.684Z,66.60
2022-08-09T13:37:52.424Z,66.50
2022-08-09T13:41:49.645Z,66.40
2022-08-09T13:43:09.777Z,66.40
2022-08-09T13:46:42.658Z,66.50
2022-08-09T13:48:27.284Z,66.50
2022-08-09T13:50:57.736Z,66.40
2022-08-09T13:53:37.608Z,66.50
2022-08-09T13:56:12.155Z,67.10
2022-08-09T13:58:39.956Z,66.60
2022-08-09T14:01:13.577Z,66.60
2022-08-09T14:04:04.897Z,66.50
2022-08-09T14:06:36.896Z,66.60
2022-08-09T14:09:07.874Z,66.60
2022-08-09T14:11:42.048Z,66.70
2022-08-09T14:14:26.885Z,66.80
2022-08-09T14:16:56.809Z,66.90
2022-08-09T14:19:26.846Z,67.10
2022-08-09T14:22:01.057Z,67.10
2022-08-09T14:24:32.583Z,67.20
2022-08-09T14:27:01.507Z,67.50
2022-08-09T14:30:37.433Z,67.70
2022-08-09T14:32:19.968Z,67.60
2022-08-09T14:34:59.100Z,67.40
2022-08-09T14:37:28.441Z,67.10
2022-08-09T14:39:56.941Z,67.10
2022-08-09T14:42:40.769Z,66.90
2022-08-09T14:46:58.658Z,66.80
2022-08-09T14:48:00.373Z,66.70
2022-08-09T14:50:32.673Z,66.70
2022-08-09T14:53:01.809Z,66.70
2022-08-09T14:55:32.522Z,66.70
2022-08-09T14:58:05.124Z,66.70
2022-08-09T15:00:35.200Z,66.50
2022-08-09T15:03:08.906Z,66.70
2022-08-09T15:05:38.689Z,66.70
2022-08-09T15:08:10.490Z,66.70
2022-08-09T15:10:38.411Z,66.70
2022-08-09T15:13:08.876Z,66.60
2022-08-09T15:15:39.234Z,66.60
2022-08-09T15:18:14.289Z,66.60
2022-08-09T15:21:57.535Z,66.70
2022-08-09T15:24:01.451Z,66.70
2022-08-09T15:26:31.069Z,67.30
2022-08-09T15:29:04.381Z,66.60
2022-08-09T15:31:41.507Z,66.70
2022-08-09T15:34:32.096Z,66.80
2022-08-09T15:36:58.966Z,67.00
2022-08-09T15:39:43.797Z,67.00
2022-08-09T15:42:15.086Z,67.30
2022-08-09T15:44:42.859Z,67.40
2022-08-09T15:47:14.339Z,67.30
2022-08-09T15:50:03.551Z,67.30
2022-08-09T15:52:35.675Z,67.20
2022-08-09T15:55:05.518Z,67.20
2022-08-09T15:57:35.904Z,67.10
2022-08-09T16:00:24.352Z,67.20
2022-08-09T16:02:56.193Z,67.40
2022-08-09T16:05:26.933Z,67.60
2022-08-09T16:08:15.183Z,67.60
2022-08-09T16:10:58.325Z,67.30
2022-08-09T16:14:04.814Z,67.00
2022-08-09T16:16:17.667Z,66.70
2022-08-09T16:18:47.576Z,66.50
2022-08-09T16:21:17.006Z,66.20
2022-08-09T16:23:55.539Z,66.20
2022-08-09T16:26:33.477Z,66.20
2022-08-09T16:29:10.741Z,66.20
2022-08-09T16:32:18.419Z,66.00
2022-08-09T16:34:29.608Z,66.10
2022-08-09T16:37:17.756Z,66.00
2022-08-09T16:39:54.572Z,66.00
2022-08-09T16:42:33.320Z,66.00
2022-08-09T16:45:01.367Z,66.10
2022-08-09T16:48:42.197Z,66.10
2022-08-09T16:50:31.722Z,66.00
2022-08-09T16:53:01.845Z,66.00
2022-08-09T16:55:58.338Z,66.00
2022-08-09T16:58:21.164Z,66.20
2022-08-09T17:00:49.769Z,66.20
2022-08-09T17:03:21.765Z,66.20
2022-08-09T17:06:07.475Z,66.30
2022-08-09T17:08:56.810Z,66.40
2022-08-09T17:11:41.303Z,66.50
2022-08-09T17:14:25.922Z,66.50
2022-08-09T17:17:02.816Z,66.70
2022-08-09T17:19:47.210Z,66.70
2022-08-09T17:22:24.640Z,66.60
2022-08-09T17:25:03.801Z,66.90
2022-08-09T17:27:33.658Z,67.00
2022-08-09T17:30:06.610Z,67.10
2022-08-09T17:32:37.945Z,67.20
2022-08-09T17:35:11.556Z,67.30
2022-08-09T17:38:12.112Z,67.50
2022-08-09T17:40:29.628Z,67.50
2022-08-09T17:42:59.564Z,67.20
2022-08-09T17:46:02.208Z,66.90
2022-08-09T17:48:19.504Z,66.70
2022-08-09T17:51:08.659Z,66.50
2022-08-09T17:53:43.340Z,66.30
2022-08-09T17:56:18.155Z,66.30
2022-08-09T17:58:46.515Z,66.40
2022-08-09T18:01:22.539Z,66.30
2022-08-09T18:03:52.706Z,66.40
2022-08-09T18:06:31.811Z,66.40
2022-08-09T18:09:03.157Z,66.60
2022-08-09T18:12:05.783Z,66.70
2022-08-09T18:14:23.585Z,66.70
2022-08-09T18:16:53.398Z,66.60
2022-08-09T18:20:55.738Z,66.70
2022-08-09T18:22:13.193Z,67.00
2022-08-09T18:24:45.667Z,67.00
2022-08-09T18:27:59.781Z,66.80
2022-08-09T18:30:40.183Z,67.00
2022-08-09T18:32:54.111Z,66.80
2022-08-09T18:35:48.167Z,66.90
2022-08-09T18:38:12.565Z,66.90
2022-08-09T18:40:40.891Z,67.10
2022-08-09T18:43:09.064Z,67.20
2022-08-09T18:46:50.727Z,67.40
2022-08-09T18:48:30.124Z,67.50
2022-08-09T18:51:00.082Z,67.50
2022-08-09T18:53:56.463Z,67.50
2022-08-09T18:56:20.089Z,67.70
2022-08-09T18:58:56.620Z,67.80
2022-08-09T19:01:25.933Z,68.20
2022-08-09T19:04:06.348Z,68.40
2022-08-09T19:06:38.548Z,68.50
2022-08-09T19:09:20.430Z,68.60
2022-08-09T19:11:57.414Z,68.60
2022-08-09T19:14:29.486Z,68.80
2022-08-09T19:16:57.842Z,68.80
2022-08-09T19:19:28.082Z,68.70
2022-08-09T19:22:06.508Z,68.60
2022-08-09T19:25:12.084Z,68.50
2022-08-09T19:27:23.682Z,68.40
2022-08-09T19:30:22.116Z,68.40
2022-08-09T19:32:44.971Z,68.40
2022-08-09T19:35:13.010Z,68.10
2022-08-09T19:37:56.446Z,68.10
2022-08-09T19:40:34.336Z,68.00
2022-08-09T19:43:05.340Z,68.00
2022-08-09T19:45:40.264Z,68.00
2022-08-09T19:48:10.778Z,67.80
2022-08-09T19:50:48.911Z,67.80
2022-08-09T19:53:20.522Z,67.70
2022-08-09T19:56:03.159Z,67.70
2022-08-09T19:58:35.069Z,67.60
2022-08-09T20:01:04.184Z,67.60
2022-08-09T20:04:09.925Z,67.70
2022-08-09T20:06:23.909Z,67.60
2022-08-09T20:08:59.566Z,67.50
2022-08-09T20:11:33.860Z,67.70
2022-08-09T20:14:16.658Z,67.70
2022-08-09T20:16:53.528Z,67.90
2022-08-09T20:19:48.900Z,67.90
2022-08-09T20:22:14.538Z,68.10
2022-08-09T20:24:51.362Z,68.20
2022-08-09T20:27:22.170Z,68.30
2022-08-09T20:29:50.506Z,68.50
2022-08-09T20:32:32.975Z,68.80
2022-08-09T20:35:02.249Z,69.00
2022-08-09T20:38:08.658Z,69.00
2022-08-09T20:40:26.544Z,68.90
2022-08-09T20:42:59.885Z,68.90
2022-08-09T20:45:59.419Z,69.00
2022-08-09T20:48:25.508Z,69.00
2022-08-09T20:50:58.293Z,69.00
2022-08-09T20:53:36.613Z,68.80
2022-08-09T20:56:08.774Z,68.90
2022-08-09T20:58:37.968Z,69.00
2022-08-09T21:01:33.161Z,69.10
2022-08-09T21:05:48.699Z,69.20
2022-08-09T21:06:44.372Z,69.20
2022-08-09T21:09:13.973Z,69.10
2022-08-09T21:14:30.954Z,69.00
2022-08-09T21:17:00.560Z,68.90
2022-08-09T21:20:18.395Z,68.90
2022-08-09T21:22:35.842Z,68.70
2022-08-09T21:25:22.805Z,68.60
2022-08-09T21:27:53.703Z,68.70
2022-08-09T21:30:23.215Z,68.90
2022-08-09T21:32:53.265Z,68.80
2022-08-09T21:35:21.555Z,68.60
2022-08-09T21:37:59.131Z,68.60
2022-08-09T21:40:32.591Z,68.60
2022-08-09T21:43:00.949Z,68.60
2022-08-09T21:45:28.954Z,68.60
2022-08-09T21:47:58.719Z,68.60
2022-08-09T21:50:36.178Z,68.70
2022-08-09T21:53:24.069Z,68.70
2022-08-09T21:55:55.635Z,68.70
2022-08-09T21:58:31.033Z,68.50
2022-08-09T22:00:59.424Z,68.50
2022-08-09T22:03:28.570Z,68.50
2022-08-09T22:05:58.059Z,68.30
2022-08-09T22:08:28.626Z,68.30
2022-08-09T22:11:00.168Z,68.30
2022-08-09T22:13:44.778Z,68.30
2022-08-09T22:16:12.731Z,68.40
2022-08-09T22:18:53.543Z,68.40
2022-08-09T22:21:44.730Z,68.20
2022-08-09T22:24:17.126Z,68.20
2022-08-09T22:26:47.843Z,68.00
2022-08-09T22:29:24.011Z,68.00
2022-08-09T22:31:57.871Z,68.20
2022-08-09T22:34:26.831Z,68.30
2022-08-09T22:36:55.564Z,68.30
2022-08-09T22:39:55.826Z,68.30
2022-08-09T22:42:22.162Z,68.30
2022-08-09T22:45:00.048Z,68.30
2022-08-09T22:48:10.614Z,68.30
2022-08-09T22:50:27.428Z,68.40
2022-08-09T22:52:58.226Z,68.40
2022-08-09T22:55:39.484Z,68.20
2022-08-09T22:58:20.239Z,68.00
2022-08-09T23:01:00.630Z,68.10
2022-08-09T23:04:04.418Z,68.00
2022-08-09T23:06:32.504Z,68.00
2022-08-09T23:09:07.531Z,68.00
2022-08-09T23:11:35.282Z,67.90
2022-08-09T23:14:03.761Z,68.00
2022-08-09T23:16:32.246Z,68.00
2022-08-09T23:19:00.659Z,68.10
2022-08-09T23:21:33.712Z,68.20
2022-08-09T23:24:06.574Z,68.20
2022-08-09T23:26:38.636Z,68.20
2022-08-09T23:29:07.629Z,68.10
2022-08-09T23:31:35.298Z,68.00
2022-08-09T23:34:03.797Z,68.10
2022-08-09T23:36:32.996Z,68.10
2022-08-09T23:39:00.869Z,68.00
2022-08-09T23:41:29.659Z,68.10
2022-08-09T23:44:01.651Z,68.30
2022-08-09T23:46:29.928Z,68.20
2022-08-09T23:48:58.441Z,68.10
2022-08-09T23:51:26.741Z,68.10
2022-08-09T23:53:55.310Z,68.10
2022-08-09T23:56:52.269Z,68.10
2022-08-09T23:59:20.841Z,68.20
